Time;durP1;ratioP1;P1;durP2;ratioP2;P2;SDS_P1;SDS_P2;PMS_P1;PMS_P2;Temp;Humidity;BMP_temperature;BMP_pressure;BME280_temperature;BME280_humidity;BME280_pressure;Samples;Min_cycle;Max_cycle;Signal;HPM_P1;HPM_P2
2023/04/22 00:00:27;;;;;;;2.93;2.57;;;8.60;99.90;;;;;;5044948;28;20456;-80
2023/04/22 00:02:55;;;;;;;3.03;2.27;;;8.60;99.90;;;;;;5040098;28;20952;-80
2023/04/22 00:05:22;;;;;;;8.50;3.70;;;8.50;99.90;;;;;;5046554;28;20686;-80
2023/04/22 00:07:50;;;;;;;4.50;2.87;;;8.40;99.90;;;;;;5043116;28;20496;-80
2023/04/22 00:10:17;;;;;;;7.73;2.13;;;8.30;99.90;;;;;;5043349;28;20587;-80
2023/04/22 00:12:44;;;;;;;5.23;2.47;;;8.40;99.90;;;;;;5046127;28;20514;-80
2023/04/22 00:15:11;;;;;;;7.27;3.23;;;8.40;99.90;;;;;;5043337;28;20964;-80
2023/04/22 00:17:39;;;;;;;6.00;2.80;;;8.40;99.90;;;;;;5047793;28;20445;-80
2023/04/22 00:20:09;;;;;;;4.23;3.23;;;8.40;99.90;;;;;;5039293;28;20480;-80
2023/04/22 00:22:36;;;;;;;6.20;2.93;;;8.30;99.90;;;;;;5034528;28;20477;-80
2023/04/22 00:25:05;;;;;;;4.30;3.00;;;8.30;99.90;;;;;;5031089;28;20968;-80
2023/04/22 00:27:32;;;;;;;14.13;3.63;;;8.30;99.90;;;;;;5046666;28;20942;-80
2023/04/22 00:29:59;;;;;;;4.93;4.10;;;8.30;99.90;;;;;;5038849;28;20553;-80
2023/04/22 00:32:26;;;;;;;5.63;3.43;;;8.20;99.90;;;;;;5045048;28;20484;-79
2023/04/22 00:34:53;;;;;;;3.77;3.27;;;8.10;99.90;;;;;;5044096;28;20477;-80
2023/04/22 00:37:20;;;;;;;3.37;3.07;;;8.00;99.90;;;;;;5045795;28;20488;-79
2023/04/22 00:39:47;;;;;;;5.00;2.23;;;8.00;99.90;;;;;;5041928;28;20504;-79
2023/04/22 00:42:16;;;;;;;5.40;3.23;;;8.00;99.90;;;;;;5041412;28;20939;-79
2023/04/22 00:44:44;;;;;;;6.03;3.70;;;7.90;99.90;;;;;;5044427;28;20910;-80
2023/04/22 00:47:11;;;;;;;6.33;3.10;;;8.10;99.90;;;;;;5039759;28;20531;-79
2023/04/22 00:49:38;;;;;;;3.30;1.83;;;8.20;99.90;;;;;;5039932;28;20481;-79
2023/04/22 00:52:06;;;;;;;4.30;2.87;;;8.20;99.90;;;;;;5039688;28;20489;-79
2023/04/22 00:54:35;;;;;;;4.73;4.20;;;8.10;99.90;;;;;;5045284;28;20473;-79
2023/04/22 00:57:03;;;;;;;4.43;3.30;;;8.00;99.90;;;;;;5039479;28;20984;-79
2023/04/22 00:59:31;;;;;;;4.80;2.80;;;7.90;99.90;;;;;;5043410;28;20599;-79
2023/04/22 01:01:58;;;;;;;4.30;2.87;;;7.80;99.90;;;;;;5042453;28;20473;-79
2023/04/22 01:04:25;;;;;;;4.00;2.60;;;7.60;99.90;;;;;;5040188;28;20520;-79
2023/04/22 01:06:53;;;;;;;5.83;2.60;;;7.50;99.90;;;;;;5042753;28;20485;-79
2023/04/22 01:09:20;;;;;;;4.37;2.43;;;7.40;99.90;;;;;;5036598;28;20792;-80
2023/04/22 01:11:47;;;;;;;3.77;3.00;;;7.30;99.90;;;;;;5039615;28;20461;-79
2023/04/22 01:14:14;;;;;;;5.23;3.63;;;7.30;99.90;;;;;;5044365;28;20441;-80
2023/04/22 01:16:43;;;;;;;10.50;3.30;;;7.20;99.90;;;;;;5041831;28;20584;-79
2023/04/22 01:19:11;;;;;;;3.53;3.23;;;7.10;99.90;;;;;;5038353;28;20901;-79
2023/04/22 01:21:39;;;;;;;3.60;3.10;;;7.00;99.90;;;;;;5043805;28;20477;-79
2023/04/22 01:24:08;;;;;;;4.87;4.20;;;6.90;99.90;;;;;;5034975;28;20484;-79
2023/04/22 01:26:36;;;;;;;4.37;3.97;;;6.80;99.90;;;;;;5043390;28;20481;-79
2023/04/22 01:29:04;;;;;;;3.43;2.93;;;6.80;99.90;;;;;;5044516;28;20515;-79
2023/04/22 01:31:31;;;;;;;7.73;4.10;;;6.80;99.90;;;;;;5042014;28;20492;-79
2023/04/22 01:33:59;;;;;;;5.00;3.63;;;6.90;99.90;;;;;;5039142;28;21041;-80
2023/04/22 01:36:26;;;;;;;6.53;3.57;;;6.90;99.90;;;;;;5045067;28;20477;-80
2023/04/22 01:38:53;;;;;;;4.03;3.63;;;7.00;99.90;;;;;;5039320;28;20500;-79
2023/04/22 01:41:21;;;;;;;4.40;3.70;;;7.00;99.90;;;;;;5035885;28;21212;-80
2023/04/22 01:43:48;;;;;;;5.30;3.83;;;7.00;99.90;;;;;;5043377;28;20511;-79
2023/04/22 01:46:17;;;;;;;3.73;3.40;;;7.00;99.90;;;;;;5037703;28;20988;-79
2023/04/22 01:48:49;;;;;;;3.40;3.00;;;7.00;99.90;;;;;;5037435;28;20465;-79
2023/04/22 01:51:16;;;;;;;7.70;4.23;;;7.00;99.90;;;;;;5040498;28;20897;-79
2023/04/22 01:53:43;;;;;;;6.90;4.50;;;6.90;99.90;;;;;;5039300;28;20487;-79
2023/04/22 01:56:10;;;;;;;5.73;4.23;;;6.80;99.90;;;;;;5044509;28;20476;-79
2023/04/22 01:58:39;;;;;;;8.20;3.90;;;6.70;99.90;;;;;;5042660;28;20990;-79
2023/04/22 02:01:06;;;;;;;4.17;3.77;;;6.60;99.90;;;;;;5040135;28;20492;-79
2023/04/22 02:03:33;;;;;;;5.13;4.63;;;6.50;99.90;;;;;;5043793;28;20488;-79
2023/04/22 02:06:00;;;;;;;4.23;3.83;;;6.40;99.90;;;;;;5041001;28;20495;-79
2023/04/22 02:08:27;;;;;;;8.77;4.83;;;6.20;99.90;;;;;;5044430;28;20473;-79
2023/04/22 02:10:54;;;;;;;4.60;3.93;;;6.10;99.90;;;;;;5037498;28;20492;-79
2023/04/22 02:13:21;;;;;;;6.27;5.20;;;6.10;99.90;;;;;;5044545;28;20917;-79
2023/04/22 02:15:49;;;;;;;6.37;5.37;;;6.20;99.90;;;;;;5038918;28;20488;-79
2023/04/22 02:18:18;;;;;;;6.20;4.43;;;6.20;99.90;;;;;;5043820;28;20543;-79
2023/04/22 02:20:45;;;;;;;6.70;4.30;;;6.30;99.90;;;;;;5040821;28;20523;-79
2023/04/22 02:23:12;;;;;;;5.93;3.10;;;6.30;99.90;;;;;;5038479;28;20461;-79
2023/04/22 02:25:40;;;;;;;8.40;4.00;;;6.40;99.90;;;;;;5036751;28;20556;-79
2023/04/22 02:28:06;;;;;;;3.97;3.67;;;6.50;99.90;;;;;;5042589;28;20558;-79
2023/04/22 02:30:34;;;;;;;3.70;3.27;;;6.50;99.90;;;;;;5042689;28;20932;-79
2023/04/22 02:33:02;;;;;;;3.97;3.57;;;6.40;99.90;;;;;;5041241;28;20550;-79
2023/04/22 02:35:29;;;;;;;4.40;4.00;;;6.40;99.90;;;;;;5036538;28;20968;-79
2023/04/22 02:37:56;;;;;;;4.43;4.03;;;6.40;99.90;;;;;;5042700;28;20569;-79
2023/04/22 02:40:23;;;;;;;4.93;4.43;;;6.40;99.90;;;;;;5035397;28;20497;-79
2023/04/22 02:42:50;;;;;;;4.70;3.40;;;6.50;99.90;;;;;;5038643;28;20496;-79
2023/04/22 02:45:17;;;;;;;7.67;5.70;;;6.30;99.90;;;;;;5040792;28;20521;-79
2023/04/22 02:47:44;;;;;;;4.87;3.80;;;6.20;99.90;;;;;;5044908;28;20507;-79
2023/04/22 02:50:13;;;;;;;5.93;5.43;;;6.10;99.90;;;;;;5038128;28;21029;-79
2023/04/22 02:52:40;;;;;;;5.80;4.97;;;5.90;99.90;;;;;;5037964;28;20520;-79
2023/04/22 02:55:09;;;;;;;5.83;5.10;;;5.80;99.90;;;;;;5047783;28;20513;-79
2023/04/22 02:57:36;;;;;;;5.53;4.20;;;5.70;99.90;;;;;;5045127;28;20536;-79
2023/04/22 03:00:04;;;;;;;8.07;4.43;;;5.70;99.90;;;;;;5045972;28;20878;-79
2023/04/22 03:02:31;;;;;;;5.07;4.57;;;5.60;99.90;;;;;;5047085;28;20919;-79
2023/04/22 03:04:59;;;;;;;7.07;6.10;;;5.50;99.90;;;;;;5036123;28;20521;-79
2023/04/22 03:07:28;;;;;;;5.93;5.37;;;5.40;99.90;;;;;;5041232;28;20502;-80
2023/04/22 03:09:55;;;;;;;4.47;4.07;;;5.30;99.90;;;;;;5038662;28;20480;-79
2023/04/22 03:12:22;;;;;;;5.83;5.27;;;5.10;99.90;;;;;;5041419;28;20453;-79
2023/04/22 03:14:49;;;;;;;6.13;4.80;;;5.10;99.90;;;;;;5044836;28;20920;-79
2023/04/22 03:17:16;;;;;;;5.60;4.73;;;5.10;99.90;;;;;;5041458;28;20457;-79
2023/04/22 03:19:42;;;;;;;6.73;4.27;;;5.00;99.90;;;;;;5045500;28;20699;-79
2023/04/22 03:22:09;;;;;;;6.87;3.77;;;5.00;99.90;;;;;;5037040;28;20571;-79
2023/04/22 03:24:38;;;;;;;5.47;4.90;;;5.00;99.90;;;;;;5041404;28;20524;-79
2023/04/22 03:27:05;;;;;;;4.73;4.33;;;4.90;99.90;;;;;;5043907;28;20546;-79
2023/04/22 03:29:32;;;;;;;6.07;4.20;;;4.90;99.90;;;;;;5047322;28;20461;-79
2023/04/22 03:31:59;;;;;;;5.70;4.77;;;5.00;99.90;;;;;;5038593;28;20902;-79
2023/04/22 03:34:26;;;;;;;5.30;4.80;;;5.00;99.90;;;;;;5046098;28;20720;-79
2023/04/22 03:36:53;;;;;;;9.10;5.33;;;5.00;99.90;;;;;;5038847;28;20460;-79
2023/04/22 03:39:20;;;;;;;4.50;3.93;;;5.10;99.90;;;;;;5043449;28;20460;-79
2023/04/22 03:41:48;;;;;;;4.87;4.37;;;5.20;99.90;;;;;;5041965;28;20488;-79
2023/04/22 03:44:15;;;;;;;8.03;4.57;;;5.30;99.90;;;;;;5045897;28;20477;-79
2023/04/22 03:46:42;;;;;;;4.53;4.13;;;5.20;99.90;;;;;;5042027;28;20897;-79
2023/04/22 03:49:09;;;;;;;6.63;4.77;;;5.20;99.90;;;;;;5045870;28;20513;-79
2023/04/22 03:51:36;;;;;;;4.40;4.10;;;5.20;99.90;;;;;;5041049;28;20520;-79
2023/04/22 03:54:03;;;;;;;4.93;3.93;;;5.30;99.90;;;;;;5041184;28;20465;-79
2023/04/22 03:56:30;;;;;;;7.60;3.97;;;5.30;99.90;;;;;;5043120;28;20515;-79
2023/04/22 03:58:59;;;;;;;5.00;4.50;;;5.20;99.90;;;;;;5043013;28;20491;-79
2023/04/22 04:01:26;;;;;;;9.77;4.40;;;5.20;99.90;;;;;;5041648;28;20493;-79
2023/04/22 04:03:53;;;;;;;5.23;3.70;;;5.20;99.90;;;;;;5043302;28;20488;-79
2023/04/22 04:06:20;;;;;;;5.57;5.07;;;5.10;99.90;;;;;;5042337;28;20590;-79
2023/04/22 04:08:47;;;;;;;4.60;3.53;;;5.00;99.90;;;;;;5049433;28;20540;-79
2023/04/22 04:11:14;;;;;;;4.50;3.53;;;5.10;99.90;;;;;;5042596;28;20480;-79
2023/04/22 04:13:41;;;;;;;6.00;3.50;;;5.20;99.90;;;;;;5045379;28;20496;-79
2023/04/22 04:16:09;;;;;;;5.97;3.53;;;5.30;99.90;;;;;;5042098;28;20496;-78
2023/04/22 04:18:36;;;;;;;4.27;3.90;;;5.20;99.90;;;;;;5044345;28;20453;-79
2023/04/22 04:21:04;;;;;;;4.30;3.93;;;5.20;99.90;;;;;;5039355;28;20559;-79
2023/04/22 04:23:31;;;;;;;3.70;3.20;;;5.30;99.90;;;;;;5043304;28;20445;-78
2023/04/22 04:26:00;;;;;;;3.73;3.10;;;5.30;99.90;;;;;;5040316;28;20488;-79
2023/04/22 04:28:29;;;;;;;4.83;3.37;;;5.30;99.90;;;;;;5044586;28;20540;-78
2023/04/22 04:30:55;;;;;;;3.10;2.90;;;5.30;99.90;;;;;;5037679;28;20531;-79
2023/04/22 04:33:24;;;;;;;4.03;3.57;;;5.40;99.90;;;;;;5037060;28;20489;-79
2023/04/22 04:35:52;;;;;;;3.03;2.57;;;5.50;99.90;;;;;;5042827;28;20461;-78
2023/04/22 04:38:20;;;;;;;3.20;2.90;;;5.60;99.90;;;;;;5040257;28;20483;-79
2023/04/22 04:40:48;;;;;;;3.70;2.73;;;5.70;99.90;;;;;;5039866;28;20940;-78
2023/04/22 04:43:15;;;;;;;2.97;2.70;;;5.90;99.90;;;;;;5038401;28;20469;-79
2023/04/22 04:45:45;;;;;;;3.43;3.03;;;5.90;99.90;;;;;;5043174;28;20531;-80
2023/04/22 04:48:13;;;;;;;3.23;2.70;;;6.00;99.90;;;;;;5043820;28;20456;-79
2023/04/22 04:50:42;;;;;;;5.90;3.00;;;6.10;99.90;;;;;;5041537;28;20469;-79
2023/04/22 04:53:09;;;;;;;4.20;2.40;;;6.20;99.90;;;;;;5038028;28;20998;-79
2023/04/22 04:55:36;;;;;;;2.50;2.30;;;6.30;99.90;;;;;;5045181;28;20442;-79
2023/04/22 04:58:04;;;;;;;2.37;2.27;;;6.40;99.90;;;;;;5039251;28;21697;-79
2023/04/22 05:00:31;;;;;;;4.20;2.33;;;6.70;99.90;;;;;;5035825;28;20526;-78
2023/04/22 05:02:58;;;;;;;3.77;2.30;;;6.80;99.90;;;;;;5039962;28;20458;-78
2023/04/22 05:05:25;;;;;;;5.80;3.33;;;6.90;99.90;;;;;;5039500;28;20518;-79
2023/04/22 05:07:53;;;;;;;4.03;3.67;;;7.00;99.90;;;;;;5043216;28;20501;-78
2023/04/22 05:10:20;;;;;;;3.67;2.57;;;7.10;99.90;;;;;;5040238;28;20534;-78
2023/04/22 05:12:47;;;;;;;3.10;2.80;;;7.40;99.90;;;;;;5047306;28;20476;-79
2023/04/22 05:15:14;;;;;;;2.60;2.27;;;7.50;99.90;;;;;;5040831;28;20454;-79
2023/04/22 05:17:41;;;;;;;3.30;3.00;;;7.50;99.90;;;;;;5045389;28;21181;-78
2023/04/22 05:20:09;;;;;;;4.50;2.80;;;7.60;99.90;;;;;;5052703;28;20465;-78
2023/04/22 05:22:36;;;;;;;3.90;3.43;;;7.70;99.90;;;;;;5044856;28;20445;-78
2023/04/22 05:25:05;;;;;;;3.17;2.87;;;7.80;99.90;;;;;;5041675;28;20457;-78
2023/04/22 05:27:32;;;;;;;4.57;3.20;;;8.00;99.90;;;;;;5043009;28;20549;-78
2023/04/22 05:29:59;;;;;;;3.43;3.13;;;8.00;99.90;;;;;;5043163;28;20553;-78
2023/04/22 05:32:26;;;;;;;3.27;2.30;;;8.00;99.90;;;;;;5042884;28;20453;-78
2023/04/22 05:34:53;;;;;;;4.40;2.77;;;8.10;99.90;;;;;;5028074;28;20516;-78
2023/04/22 05:37:20;;;;;;;4.70;2.57;;;8.20;99.90;;;;;;5033433;28;20961;-78
2023/04/22 05:39:47;;;;;;;2.70;2.40;;;8.30;99.90;;;;;;5027053;28;20559;-78
2023/04/22 05:42:16;;;;;;;2.33;2.13;;;8.30;99.90;;;;;;5034972;28;20497;-78
2023/04/22 05:44:42;;;;;;;2.17;2.07;;;8.40;99.90;;;;;;5043051;28;20531;-78
2023/04/22 05:47:09;;;;;;;3.43;2.97;;;8.50;99.90;;;;;;5039665;28;20509;-78
2023/04/22 05:49:36;;;;;;;3.43;3.13;;;8.80;99.90;;;;;;5042027;28;20906;-78
2023/04/22 05:52:03;;;;;;;3.90;3.60;;;8.90;99.90;;;;;;5034491;28;20493;-78
2023/04/22 05:54:30;;;;;;;6.23;3.60;;;9.20;99.90;;;;;;5040441;28;20527;-78
2023/04/22 05:56:57;;;;;;;3.13;2.93;;;9.30;99.90;;;;;;5041415;28;20488;-78
2023/04/22 05:59:26;;;;;;;3.63;3.33;;;9.50;99.90;;;;;;5045191;28;20810;-78
2023/04/22 06:01:53;;;;;;;3.83;3.30;;;9.50;99.90;;;;;;5044740;28;20468;-78
2023/04/22 06:04:20;;;;;;;7.63;3.53;;;9.30;99.90;;;;;;5036796;28;20474;-78
2023/04/22 06:06:47;;;;;;;3.73;3.43;;;9.50;99.90;;;;;;5049202;28;20485;-78
2023/04/22 06:09:14;;;;;;;5.70;4.30;;;9.70;99.90;;;;;;5041204;28;20469;-78
2023/04/22 06:11:41;;;;;;;7.17;6.60;;;9.70;99.90;;;;;;5042634;28;20461;-78
2023/04/22 06:14:08;;;;;;;3.60;3.30;;;9.80;99.90;;;;;;5038219;28;20480;-81
2023/04/22 06:16:37;;;;;;;7.57;6.77;;;10.00;99.90;;;;;;5039358;28;20458;-78
2023/04/22 06:19:03;;;;;;;8.30;7.43;;;10.20;99.90;;;;;;5035918;28;20468;-78
2023/04/22 06:21:31;;;;;;;8.60;5.37;;;10.40;99.90;;;;;;5032159;28;20520;-78
2023/04/22 06:23:58;;;;;;;4.33;3.93;;;10.60;99.90;;;;;;5036501;28;20471;-78
2023/04/22 06:26:25;;;;;;;3.63;3.33;;;10.80;99.90;;;;;;5034246;28;20566;-78
2023/04/22 06:28:52;;;;;;;3.70;3.40;;;11.10;99.90;;;;;;5043374;28;20476;-78
2023/04/22 06:31:19;;;;;;;3.20;3.00;;;11.40;99.90;;;;;;5042433;28;20461;-78
2023/04/22 06:33:48;;;;;;;3.03;2.70;;;11.60;99.90;;;;;;5034373;28;20543;-78
2023/04/22 06:36:15;;;;;;;2.80;2.40;;;11.80;99.90;;;;;;5033851;28;20467;-81
2023/04/22 06:38:42;;;;;;;3.17;2.97;;;11.90;99.90;;;;;;5040209;28;20506;-81
2023/04/22 06:41:14;;;;;;;3.20;2.83;;;12.10;99.90;;;;;;5038259;28;21824;-82
2023/04/22 06:43:41;;;;;;;2.50;2.40;;;12.30;99.90;;;;;;5043088;28;20468;-81
2023/04/22 06:46:08;;;;;;;2.40;2.20;;;12.10;99.90;;;;;;5039964;28;20478;-81
2023/04/22 06:48:35;;;;;;;2.60;2.40;;;12.30;99.90;;;;;;5036855;28;20462;-81
2023/04/22 06:51:03;;;;;;;2.70;2.50;;;12.50;99.90;;;;;;5029493;28;20524;-80
2023/04/22 06:53:30;;;;;;;3.00;2.80;;;12.40;99.90;;;;;;5034721;28;20957;-80
2023/04/22 06:56:00;;;;;;;2.73;2.53;;;12.40;99.90;;;;;;5043699;28;20468;-84
2023/04/22 06:58:27;;;;;;;2.93;2.70;;;12.40;99.90;;;;;;5041411;28;20484;-81
2023/04/22 07:00:54;;;;;;;3.00;2.80;;;12.60;99.90;;;;;;5039651;28;20531;-79
2023/04/22 07:03:21;;;;;;;3.53;2.50;;;12.60;99.90;;;;;;5036476;28;20471;-79
2023/04/22 07:05:48;;;;;;;2.97;2.77;;;12.70;99.90;;;;;;5040709;28;20536;-79
2023/04/22 07:08:17;;;;;;;3.50;2.90;;;12.80;99.90;;;;;;5037712;28;20477;-80
2023/04/22 07:10:44;;;;;;;6.03;3.73;;;12.80;99.90;;;;;;5037383;28;20912;-80
2023/04/22 07:13:11;;;;;;;4.27;3.97;;;12.90;99.90;;;;;;5039946;28;21063;-80
2023/04/22 07:15:38;;;;;;;3.37;3.10;;;12.90;99.90;;;;;;5043966;28;20998;-80
2023/04/22 07:18:05;;;;;;;2.87;2.67;;;13.20;99.90;;;;;;5043396;28;20449;-78
2023/04/22 07:20:32;;;;;;;4.03;3.73;;;13.10;99.90;;;;;;5038516;28;20471;-78
2023/04/22 07:22:59;;;;;;;3.70;3.37;;;13.00;99.90;;;;;;5042486;28;20542;-78
2023/04/22 07:25:27;;;;;;;7.33;3.97;;;13.10;99.90;;;;;;5040421;28;21142;-78
2023/04/22 07:27:54;;;;;;;3.70;3.10;;;13.40;99.90;;;;;;5043383;28;21003;-79
2023/04/22 07:30:21;;;;;;;4.50;4.10;;;13.50;99.90;;;;;;5039222;28;21564;-79
2023/04/22 07:32:48;;;;;;;7.50;4.50;;;13.60;99.90;;;;;;5044499;28;20866;-79
2023/04/22 07:35:15;;;;;;;5.03;3.00;;;13.80;99.90;;;;;;5044410;28;20971;-80
2023/04/22 07:37:42;;;;;;;3.40;3.10;;;14.00;99.90;;;;;;5045682;28;20449;-80
2023/04/22 07:40:12;;;;;;;5.00;2.93;;;14.30;99.90;;;;;;5043062;28;20464;-80
2023/04/22 07:42:41;;;;;;;4.40;3.77;;;14.50;99.90;;;;;;5036050;28;20461;-79
2023/04/22 07:45:08;;;;;;;4.27;3.50;;;14.60;99.90;;;;;;5046270;28;20464;-80
2023/04/22 07:47:35;;;;;;;3.10;2.90;;;14.40;99.90;;;;;;5047555;28;20477;-79
2023/04/22 07:50:02;;;;;;;3.20;2.33;;;14.70;99.90;;;;;;5037705;28;20469;-80
2023/04/22 07:52:30;;;;;;;3.17;2.20;;;14.70;99.90;;;;;;5044156;28;20842;-79
2023/04/22 07:54:56;;;;;;;3.17;2.97;;;14.60;99.90;;;;;;5046907;28;20459;-80
2023/04/22 07:57:24;;;;;;;5.27;2.87;;;14.90;99.90;;;;;;5040887;28;20496;-80
2023/04/22 07:59:53;;;;;;;3.70;3.40;;;14.90;98.80;;;;;;5044850;28;20473;-80
2023/04/22 08:02:20;;;;;;;6.90;2.87;;;14.70;99.90;;;;;;5046225;28;21008;-79
2023/04/22 08:04:47;;;;;;;3.00;2.57;;;14.70;99.90;;;;;;5044897;28;20535;-80
2023/04/22 08:07:15;;;;;;;5.07;3.97;;;14.70;98.20;;;;;;5042355;28;20480;-79
2023/04/22 08:09:42;;;;;;;3.83;2.30;;;14.80;99.40;;;;;;5046372;28;20466;-81
2023/04/22 08:12:09;;;;;;;11.33;6.47;;;15.10;99.90;;;;;;5032666;28;20480;-81
2023/04/22 08:14:36;;;;;;;13.93;6.80;;;15.20;99.90;;;;;;5046397;28;20448;-80
2023/04/22 08:17:04;;;;;;;11.57;6.20;;;15.40;98.20;;;;;;5041433;28;20461;-79
2023/04/22 08:19:31;;;;;;;4.57;2.90;;;15.50;99.90;;;;;;5046497;28;20445;-78
2023/04/22 08:21:58;;;;;;;4.73;2.83;;;15.50;98.50;;;;;;5044909;28;20459;-79
2023/04/22 08:24:25;;;;;;;5.23;2.80;;;15.70;96.40;;;;;;5039204;28;20457;-79
2023/04/22 08:26:52;;;;;;;4.97;2.90;;;15.50;97.10;;;;;;5032199;28;20493;-79
2023/04/22 08:29:19;;;;;;;10.10;3.07;;;15.70;95.50;;;;;;5037638;28;20449;-79
2023/04/22 08:31:46;;;;;;;2.60;2.40;;;15.60;94.60;;;;;;5045065;28;20449;-79
2023/04/22 08:34:15;;;;;;;3.57;2.60;;;15.60;96.40;;;;;;5041455;28;20994;-78
2023/04/22 08:36:42;;;;;;;4.00;2.90;;;15.80;98.00;;;;;;5038666;28;20441;-78
2023/04/22 08:39:10;;;;;;;2.83;2.63;;;15.60;97.00;;;;;;5043609;28;20525;-79
2023/04/22 08:41:37;;;;;;;6.13;3.40;;;15.90;96.80;;;;;;5039154;28;20466;-79
2023/04/22 08:44:05;;;;;;;3.13;2.73;;;15.90;97.20;;;;;;5041785;28;20502;-79
2023/04/22 08:46:33;;;;;;;4.73;3.00;;;15.90;98.50;;;;;;5043920;28;20566;-79
2023/04/22 08:49:02;;;;;;;2.47;2.27;;;16.20;96.60;;;;;;5031473;28;20555;-79
2023/04/22 08:51:33;;;;;;;3.30;3.00;;;16.20;98.30;;;;;;5042563;28;20465;-79
2023/04/22 08:54:00;;;;;;;2.80;2.60;;;16.40;97.00;;;;;;5029391;28;20473;-80
2023/04/22 08:56:28;;;;;;;2.67;2.37;;;16.60;96.00;;;;;;5044629;28;21133;-80
2023/04/22 08:58:56;;;;;;;2.70;2.47;;;16.70;95.30;;;;;;5038859;28;20449;-79
2023/04/22 09:01:24;;;;;;;3.43;2.87;;;16.60;95.40;;;;;;5037229;28;20930;-80
2023/04/22 09:03:51;;;;;;;3.00;2.70;;;16.60;95.10;;;;;;5038522;28;20500;-79
2023/04/22 09:06:20;;;;;;;3.63;3.07;;;16.70;96.50;;;;;;5041051;28;20505;-79
2023/04/22 09:08:49;;;;;;;3.83;3.37;;;16.70;95.60;;;;;;5044525;28;20468;-80
2023/04/22 09:11:17;;;;;;;3.23;2.93;;;16.60;95.80;;;;;;5041137;28;20936;-80
2023/04/22 09:13:44;;;;;;;3.17;2.87;;;16.70;98.30;;;;;;5040487;28;20581;-79
2023/04/22 09:16:11;;;;;;;3.70;3.40;;;17.10;98.40;;;;;;5035941;28;20469;-80
2023/04/22 09:18:42;;;;;;;5.10;2.80;;;16.70;94.30;;;;;;5031677;28;20516;-80
2023/04/22 09:21:09;;;;;;;8.00;3.93;;;16.70;95.60;;;;;;5034908;28;20474;-80
2023/04/22 09:23:48;;;;;;;3.23;2.93;;;16.80;95.20;;;;;;5047407;28;20467;-80
2023/04/22 09:26:19;;;;;;;3.90;3.60;;;17.10;99.30;;;;;;5035123;28;20631;-80
2023/04/22 09:28:51;;;;;;;9.80;4.73;;;17.30;95.20;;;;;;5043228;28;20504;-80
2023/04/22 09:31:18;;;;;;;2.97;2.87;;;17.30;95.30;;;;;;5039276;28;20455;-80
2023/04/22 09:33:49;;;;;;;3.73;3.40;;;17.40;94.60;;;;;;5041915;28;20993;-81
2023/04/22 09:36:16;;;;;;;4.60;3.30;;;17.50;93.60;;;;;;5037648;28;21145;-80
2023/04/22 09:38:53;;;;;;;4.60;3.30;;;17.50;96.00;;;;;;5039397;28;20493;-80
2023/04/22 09:41:28;;;;;;;3.30;3.00;;;17.90;93.50;;;;;;5045845;28;20467;-80
2023/04/22 09:43:57;;;;;;;3.13;2.80;;;18.00;93.50;;;;;;5038259;28;20954;-80
2023/04/22 09:46:25;;;;;;;3.83;3.40;;;17.70;93.70;;;;;;5037884;28;20461;-80
2023/04/22 09:48:53;;;;;;;4.50;3.97;;;18.10;95.00;;;;;;5042329;28;20471;-81
2023/04/22 09:51:20;;;;;;;5.57;3.37;;;18.00;94.00;;;;;;5045044;28;20571;-79
2023/04/22 09:53:58;;;;;;;4.83;3.33;;;18.10;92.60;;;;;;5043263;28;20495;-80
2023/04/22 09:59:24;;;;;;;3.57;3.17;;;18.00;93.10;;;;;;5090302;27;20543;-78
2023/04/22 10:01:53;;;;;;;3.50;3.00;;;18.00;93.00;;;;;;5067981;28;20440;-78
2023/04/22 10:04:22;;;;;;;5.87;3.33;;;18.00;92.80;;;;;;5078006;28;20463;-79
2023/04/22 10:06:49;;;;;;;4.77;3.27;;;18.10;93.00;;;;;;5078919;28;20501;-79
2023/04/22 10:09:19;;;;;;;4.83;3.40;;;18.20;92.90;;;;;;5075567;28;20492;-80
2023/04/22 10:11:47;;;;;;;4.33;4.03;;;18.00;93.60;;;;;;5085650;28;20464;-79
2023/04/22 10:14:14;;;;;;;7.63;3.63;;;18.00;93.20;;;;;;5085378;28;20478;-80
2023/04/22 10:16:48;;;;;;;5.00;3.60;;;18.10;92.00;;;;;;5083908;28;20502;-81
2023/04/22 10:19:20;;;;;;;3.13;2.93;;;18.50;90.90;;;;;;5084243;28;20481;-80
2023/04/22 10:21:52;;;;;;;3.40;3.10;;;18.30;91.40;;;;;;5083882;28;20470;-81
2023/04/22 10:24:37;;;;;;;3.60;3.30;;;18.20;91.00;;;;;;5078071;28;20806;-81
2023/04/22 10:27:09;;;;;;;4.80;2.87;;;18.40;93.30;;;;;;5079214;28;20554;-81
2023/04/22 10:29:40;;;;;;;3.30;3.10;;;18.30;91.10;;;;;;5079204;28;20806;-81
2023/04/22 10:32:32;;;;;;;4.53;3.70;;;18.50;90.00;;;;;;5077665;28;20471;-81
2023/04/22 10:35:10;;;;;;;3.70;2.83;;;18.60;91.00;;;;;;5077147;28;20787;-80
2023/04/22 10:37:40;;;;;;;3.20;2.80;;;18.40;90.60;;;;;;5083373;28;20478;-80
2023/04/22 10:40:11;;;;;;;2.90;2.70;;;18.50;91.20;;;;;;5077720;28;20463;-80
2023/04/22 10:42:47;;;;;;;5.77;3.60;;;18.70;91.90;;;;;;5077940;28;20467;-80
2023/04/22 10:45:15;;;;;;;3.40;2.77;;;18.70;91.50;;;;;;5079123;28;20859;-80
2023/04/22 10:47:44;;;;;;;3.10;2.20;;;18.90;94.30;;;;;;5079358;28;20462;-80
2023/04/22 10:50:19;;;;;;;4.20;2.67;;;19.30;91.30;;;;;;5071385;28;20517;-80
2023/04/22 10:52:49;;;;;;;10.63;3.00;;;18.90;89.60;;;;;;5073369;28;20454;-80
2023/04/22 10:55:16;;;;;;;6.50;2.67;;;18.70;88.40;;;;;;5069507;28;20947;-80
2023/04/22 10:57:45;;;;;;;3.87;2.40;;;18.70;92.30;;;;;;5067814;28;20538;-80
2023/04/22 11:00:31;;;;;;;5.10;2.70;;;18.90;89.40;;;;;;5069548;28;20448;-80
2023/04/22 11:03:15;;;;;;;3.07;2.80;;;19.50;92.40;;;;;;5080740;28;20521;-80
2023/04/22 11:05:42;;;;;;;4.77;3.47;;;19.50;87.60;;;;;;5078151;28;20485;-81
2023/04/22 11:08:15;;;;;;;4.30;2.70;;;19.50;85.60;;;;;;5074233;28;20507;-80
2023/04/22 11:10:44;;;;;;;3.10;2.90;;;19.70;85.30;;;;;;5067464;28;20468;-80
2023/04/22 11:13:13;;;;;;;2.20;2.10;;;19.50;84.90;;;;;;5066992;28;20519;-81
2023/04/22 11:15:42;;;;;;;2.43;2.30;;;19.50;86.70;;;;;;5068697;28;20452;-81
2023/04/22 11:18:22;;;;;;;4.50;2.07;;;19.70;89.30;;;;;;5065433;28;20544;-80
2023/04/22 11:20:50;;;;;;;2.63;2.43;;;20.00;91.10;;;;;;5066042;28;20797;-81
2023/04/22 11:23:22;;;;;;;2.67;2.47;;;19.80;81.90;;;;;;5053184;28;21002;-83
2023/04/22 11:25:54;;;;;;;3.33;2.60;;;19.70;82.40;;;;;;5066960;28;20437;-81
2023/04/22 11:28:22;;;;;;;2.60;2.23;;;19.80;81.80;;;;;;5058203;28;20506;-80
2023/04/22 11:30:49;;;;;;;4.50;2.00;;;19.60;79.60;;;;;;5067993;28;20868;-81
2023/04/22 11:33:17;;;;;;;3.30;1.57;;;19.70;80.90;;;;;;5058613;28;20490;-80
2023/04/22 11:35:45;;;;;;;2.10;1.97;;;19.70;80.50;;;;;;5061304;28;20502;-81
2023/04/22 11:38:18;;;;;;;2.20;2.10;;;19.80;80.60;;;;;;5057098;28;20485;-81
2023/04/22 11:40:50;;;;;;;2.40;1.80;;;20.10;79.60;;;;;;5054401;28;20471;-80
2023/04/22 11:43:18;;;;;;;2.60;2.40;;;20.00;87.00;;;;;;5052763;28;20445;-80
2023/04/22 11:45:50;;;;;;;1.50;1.40;;;20.60;84.30;;;;;;5063679;28;20467;-81
2023/04/22 11:48:18;;;;;;;1.83;1.50;;;20.40;78.40;;;;;;5061944;28;20436;-81
2023/04/22 11:50:52;;;;;;;2.80;1.40;;;20.30;76.40;;;;;;5067602;28;20475;-81
2023/04/22 11:53:29;;;;;;;2.20;1.83;;;20.40;80.00;;;;;;5057814;28;20495;-82
2023/04/22 11:56:00;;;;;;;2.50;1.70;;;20.60;74.80;;;;;;5067107;28;20456;-82
2023/04/22 11:58:33;;;;;;;2.87;2.10;;;20.50;69.10;;;;;;5069450;28;20581;-82
2023/04/22 12:01:00;;;;;;;3.07;1.77;;;20.30;74.20;;;;;;5066086;28;20456;-81
2023/04/22 12:03:30;;;;;;;3.43;1.50;;;20.40;70.30;;;;;;5064859;28;20452;-82
2023/04/22 12:06:03;;;;;;;2.40;1.80;;;20.60;69.00;;;;;;5063716;28;20461;-81
2023/04/22 12:08:33;;;;;;;2.17;1.67;;;20.50;68.40;;;;;;5059596;28;20703;-82
2023/04/22 12:11:03;;;;;;;1.60;1.50;;;20.70;69.80;;;;;;5063629;28;20488;-81
2023/04/22 12:13:35;;;;;;;1.60;1.50;;;20.70;68.80;;;;;;5056509;28;20453;-79
2023/04/22 12:16:05;;;;;;;2.70;1.20;;;20.70;66.30;;;;;;5059285;28;21165;-84
2023/04/22 12:18:34;;;;;;;2.27;1.27;;;20.50;63.70;;;;;;5057245;28;21316;-80
2023/04/22 12:21:09;;;;;;;2.20;1.53;;;20.40;72.80;;;;;;5060488;28;20442;-81
2023/04/22 12:23:42;;;;;;;1.23;1.13;;;20.70;65.60;;;;;;5063573;28;20649;-81
2023/04/22 12:26:09;;;;;;;1.40;1.10;;;21.00;66.30;;;;;;5058880;28;20471;-81
2023/04/22 12:28:38;;;;;;;2.40;1.43;;;21.00;62.90;;;;;;5057027;28;20558;-81
2023/04/22 12:31:05;;;;;;;1.70;1.60;;;21.10;60.50;;;;;;5071470;28;21021;-80
2023/04/22 12:33:32;;;;;;;1.20;1.10;;;21.00;60.00;;;;;;5064575;28;20539;-81
2023/04/22 12:36:00;;;;;;;1.47;1.00;;;21.30;62.10;;;;;;5060935;28;20484;-81
2023/04/22 12:38:28;;;;;;;1.30;1.20;;;21.30;56.70;;;;;;5056958;28;20551;-78
2023/04/22 12:40:55;;;;;;;1.90;1.80;;;21.60;65.70;;;;;;5063341;28;20462;-78
2023/04/22 12:43:26;;;;;;;1.27;1.17;;;21.40;58.30;;;;;;5064100;28;20452;-82
2023/04/22 12:45:54;;;;;;;2.97;2.70;;;21.40;57.70;;;;;;5062908;28;20530;-82
2023/04/22 12:48:25;;;;;;;2.10;1.10;;;21.30;66.30;;;;;;5059818;28;20500;-81
2023/04/22 12:50:56;;;;;;;1.10;1.00;;;21.50;56.60;;;;;;5069847;28;20456;-81
2023/04/22 12:53:37;;;;;;;1.87;0.87;;;21.70;59.50;;;;;;5062109;28;20444;-83
2023/04/22 12:56:05;;;;;;;1.00;0.90;;;22.00;56.50;;;;;;5057397;28;20444;-86
2023/04/22 12:58:32;;;;;;;1.10;1.00;;;21.60;61.10;;;;;;5057267;28;20491;-82